Flight Track Log - Related Links

Times and Time Zones

All times are in EST time to prevent confusion due to time zone crossing. See the N541JD flight status page for this flight to view local times or setup timezone preferences in your user account.


Time Position Orientation Groundspeed Altitude Reporting Facility
EST Latitude Longitude Course Direction KTS MPH feet Rate Location/Type
Thu 01:57:15 PM 33.3406 -86.9356 238° Southwest 143 165 2,200  Level Atlanta Center
Thu 01:57:28 PM 33.3342 -86.9478 238° Southwest 146 168 2,400 1,068 Climbing Atlanta Center
Thu 01:58:28 PM 33.3144 -86.9819 235° Southwest 134 154 3,500 1,140 Climbing Atlanta Center
Thu 01:59:29 PM 33.2950 -87.0111 231° Southwest 117 135 4,700 1,041 Climbing Atlanta Center
Thu 02:00:29 PM 33.2733 -87.0403 228° Southwest 105 121 5,600 843 Climbing Atlanta Center
Thu 02:01:30 PM 33.2581 -87.0719 240° Southwest 113 130 6,400 787 Climbing Atlanta Center
Thu 02:02:31 PM 33.2364 -87.1061 233° Southwest 116 133 7,200 694 Climbing Atlanta Center
Thu 02:03:31 PM 33.2169 -87.1350 231° Southwest 117 135 7,800 462 Climbing Atlanta Center
Thu 02:04:15 PM 33.2039 -87.1544 231° Southwest 129 148 8,000 295 Climbing Atlanta Center
Thu 02:04:32 PM 33.1972 -87.1692 242° Southwest 132 152 8,100 100 Climbing Atlanta Center
Thu 02:05:15 PM 33.1797 -87.1983 234° Southwest 145 167 8,100  Level Atlanta Center
Thu 02:05:32 PM 33.1689 -87.2103 223° Southwest 149 171 8,100  Level Atlanta Center
Thu 02:06:15 PM 33.1581 -87.2322 239° Southwest 145 167 8,100 -58 Level Atlanta Center
Thu 02:07:15 PM 33.1319 -87.2686 229° Southwest 145 167 8,000  Descending Atlanta Center
Thu 02:08:15 PM 33.1103 -87.3050 235° Southwest 145 167 8,100 50 Climbing Atlanta Center
Thu 02:09:15 PM 33.0864 -87.3364 228° Southwest 145 167 8,100  Level Atlanta Center
Thu 02:10:15 PM 33.0644 -87.3775 238° Southwest 139 160 8,100  Level Atlanta Center
Thu 02:11:15 PM 33.0406 -87.4114 230° Southwest 139 160 8,100  Level Atlanta Center
Thu 02:12:15 PM 33.0167 -87.4475 232° Southwest 147 169 8,100  Level Atlanta Center
Thu 02:13:15 PM 32.9947 -87.4839 234° Southwest 147 169 8,100  Level Atlanta Center
Thu 02:14:15 PM 32.9708 -87.5200 232° Southwest 147 169 8,100  Level Atlanta Center
Thu 02:15:15 PM 32.9486 -87.5589 236° Southwest 147 169 8,100  Level Atlanta Center
Thu 02:16:15 PM 32.9247 -87.5950 232° Southwest 152 175 8,100  Level Atlanta Center
Thu 02:17:30 PM 32.8975 -87.6394 234° Southwest 140 161 8,100  Level Memphis Center
Thu 02:18:32 PM 32.8742 -87.6747 232° Southwest 137 158 8,100  Level Memphis Center
Thu 02:19:34 PM 32.8503 -87.7119 233° Southwest 139 160 8,100  Level Memphis Center
Thu 02:20:36 PM 32.8225 -87.7553 225° Southwest 138 159 8,100  Level Memphis Center
Thu 02:21:00 PM 32.8090 -87.7592 225° Southwest  Level FlightAware Approximate
Thu 02:21:37 PM 32.7989 -87.7928 233° Southwest 140 161 8,100  Level Memphis Center
Thu 02:22:39 PM 32.7756 -87.8289 232° Southwest 140 161 8,100  Level Memphis Center
Thu 02:23:41 PM 32.7519 -87.8647 232° Southwest 138 159 8,100  Level Memphis Center
Thu 02:24:43 PM 32.7278 -87.9036 234° Southwest 138 159 8,100  Level Memphis Center
Thu 02:25:45 PM 32.7036 -87.9394 231° Southwest 139 160 8,100  Level Memphis Center
Thu 02:26:47 PM 32.6811 -87.9756 233° Southwest 138 159 8,100  Level Memphis Center
Thu 02:27:49 PM 32.6522 -88.0189 232° Southwest 139 160 8,100  Level Memphis Center
Thu 02:28:51 PM 32.6292 -88.0547 233° Southwest 138 159 8,100  Level Memphis Center
Thu 02:29:53 PM 32.6064 -88.0903 233° Southwest 137 158 8,100  Level Memphis Center
Thu 02:30:55 PM 32.5836 -88.1261 233° Southwest 137 158 8,100  Level Memphis Center
Thu 02:31:58 PM 32.5603 -88.1617 232° Southwest 137 158 8,100  Level Memphis Center
Thu 02:33:00 PM 32.5319 -88.2050 232° Southwest 138 159 8,100 -48 Level Memphis Center
Thu 02:34:02 PM 32.5086 -88.2417 233° Southwest 139 160 8,000 -48 Descending Memphis Center
Thu 02:35:04 PM 32.4847 -88.2775 232° Southwest 140 161 8,000  Level Memphis Center
Thu 02:36:06 PM 32.4592 -88.3167 232° Southwest 139 160 8,000  Level Memphis Center
Thu 02:37:08 PM 32.4364 -88.3517 232° Southwest 137 158 8,000  Level Memphis Center
Thu 02:38:10 PM 32.4131 -88.3869 232° Southwest 136 157 8,000  Level Memphis Center
Thu 02:39:12 PM 32.3911 -88.4219 233° Southwest 134 154 8,000  Level Memphis Center
Thu 02:40:14 PM 32.3681 -88.4581 233° Southwest 136 157 8,000  Level Memphis Center
Thu 02:41:16 PM 32.3314 -88.4914 218° Southwest 140 161 8,000  Level Memphis Center
Thu 02:42:18 PM 32.3019 -88.5194 219° Southwest 138 159 8,000  Level Memphis Center
Thu 02:43:20 PM 32.2722 -88.5481 219° Southwest 137 158 8,000  Level Memphis Center
Thu 02:44:22 PM 32.2389 -88.5794 219° Southwest 139 160 8,000  Level Memphis Center
Thu 02:45:24 PM 32.2086 -88.6072 218° Southwest 138 159 8,000  Level Memphis Center
Thu 02:46:26 PM 32.1792 -88.6356 219° Southwest 138 159 8,000  Level Memphis Center
Thu 02:47:28 PM 32.1489 -88.6631 218° Southwest 137 158 8,000  Level Memphis Center
Thu 02:48:30 PM 32.1200 -88.6917 220° Southwest 138 159 8,000  Level Memphis Center
Thu 02:49:32 PM 32.0825 -88.7244 217° Southwest 139 160 8,000  Level Memphis Center
Thu 02:50:34 PM 32.0528 -88.7531 219° Southwest 139 160 8,000  Level Memphis Center
Thu 02:51:36 PM 32.0222 -88.7817 218° Southwest 139 160 8,000  Level Memphis Center
Thu 02:52:39 PM 31.9914 -88.8100 218° Southwest 141 162 8,000  Level Memphis Center
Thu 02:53:41 PM 31.9611 -88.8372 217° Southwest 139 160 8,000  Level Memphis Center
Thu 02:54:43 PM 31.9261 -88.8703 219° Southwest 141 162 8,000  Level Memphis Center
Thu 02:55:45 PM 31.8953 -88.8986 218° Southwest 141 162 8,000  Level Memphis Center
Thu 02:56:36 PM 31.8697 -88.9225 218° Southwest 142 163 8,000  Level Houston Center
Thu 02:57:38 PM 31.8400 -88.9497 218° Southwest 139 160 8,000  Level Houston Center
Thu 02:58:41 PM 31.8022 -88.9833 217° Southwest 142 163 8,000  Level Houston Center
Thu 02:59:43 PM 31.7714 -89.0128 219° Southwest 142 163 8,000  Level Houston Center
Thu 03:00:45 PM 31.7403 -89.0411 218° Southwest 143 165 8,000  Level Houston Center
Thu 03:01:47 PM 31.7086 -89.0706 218° Southwest 144 166 8,000  Level Houston Center
Thu 03:02:49 PM 31.6767 -89.0994 218° Southwest 144 166 8,000  Level Houston Center
Thu 03:03:51 PM 31.6400 -89.1344 219° Southwest 143 165 8,000  Level Houston Center
Thu 03:04:54 PM 31.6089 -89.1617 217° Southwest 141 162 8,000  Level Houston Center
Thu 03:05:56 PM 31.5786 -89.1908 219° Southwest 141 162 8,000  Level Houston Center
Thu 03:06:58 PM 31.5481 -89.2189 218° Southwest 140 161 8,000  Level Houston Center
Thu 03:08:00 PM 31.5342 -89.2547 246° West 154 177 8,000  Level Houston Center
Thu 03:09:02 PM 31.5286 -89.3106 263° West 147 169 8,000  Level Houston Center
Thu 03:10:04 PM 31.5261 -89.3561 266° West 142 163 8,000  Level Houston Center
Thu 03:11:06 PM 31.5244 -89.4028 268° West 143 165 8,000  Level Houston Center
Thu 03:12:09 PM 31.5214 -89.4503 266° West 145 167 8,000  Level Houston Center
Thu 03:13:11 PM 31.5189 -89.4972 266° West 145 167 8,000  Level Houston Center
Thu 03:14:13 PM 31.5167 -89.5519 267° West 144 166 8,000  Level Houston Center
Thu 03:15:15 PM 31.5144 -89.5989 267° West 144 166 8,000  Level Houston Center
Thu 03:16:17 PM 31.5114 -89.6458 266° West 145 167 8,000  Level Houston Center
Thu 03:17:19 PM 31.5089 -89.6928 266° West 145 167 8,000  Level Houston Center
Thu 03:18:21 PM 31.5069 -89.7400 267° West 145 167 8,000  Level Houston Center
Thu 03:19:24 PM 31.5044 -89.7875 266° West 147 169 8,000  Level Houston Center
Thu 03:20:26 PM 31.5011 -89.8442 266° West 147 169 8,000  Level Houston Center
Thu 03:21:28 PM 31.4986 -89.8911 266° West 146 168 8,000  Level Houston Center
Thu 03:22:30 PM 31.4967 -89.9375 267° West 145 167 8,000  Level Houston Center
Thu 03:23:32 PM 31.4936 -89.9833 266° West 143 165 8,000  Level Houston Center
Thu 03:24:34 PM 31.4917 -90.0308 267° West 145 167 8,000  Level Houston Center
Thu 03:25:37 PM 31.4886 -90.0872 266° West 145 167 8,000  Level Houston Center
Thu 03:26:39 PM 31.4853 -90.1353 265° West 147 169 8,000  Level Houston Center
Thu 03:27:41 PM 31.4839 -90.1822 268° West 146 168 8,000  Level Houston Center
Thu 03:28:43 PM 31.4794 -90.2292 264° West 145 167 8,000  Level Houston Center
Thu 03:29:45 PM 31.4761 -90.2772 265° West 147 169 8,000  Level Houston Center
Thu 03:30:47 PM 31.4736 -90.3333 267° West 146 168 8,000  Level Houston Center
Thu 03:31:49 PM 31.4708 -90.3800 266° West 146 168 8,000  Level Houston Center
Thu 03:32:52 PM 31.4686 -90.4278 267° West 146 168 8,000  Level Houston Center
Thu 03:33:54 PM 31.4656 -90.4739 266° West 145 167 8,000  Level Houston Center
Thu 03:34:56 PM 31.4633 -90.5203 267° West 144 166 8,000  Level Houston Center
Thu 03:35:58 PM 31.4603 -90.5672 266° West 144 166 8,000  Level Houston Center
Thu 03:37:00 PM 31.4578 -90.6164 267° West 143 165 8,000  Level Houston Center
Thu 03:38:02 PM 31.4553 -90.6683 267° West 143 165 8,000  Level Houston Center
Thu 03:39:05 PM 31.4517 -90.7139 265° West 147 169 8,000  Level Houston Center
Thu 03:40:07 PM 31.4481 -90.7597 265° West 144 166 8,000  Level Houston Center
Thu 03:41:09 PM 31.4456 -90.8089 267° West 143 165 8,000 48 Level Houston Center
Thu 03:42:11 PM 31.4431 -90.8539 266° West 141 162 8,100 48 Climbing Houston Center
Thu 03:43:13 PM 31.4397 -90.9056 266° West 140 161 8,100  Level Houston Center
Thu 03:44:16 PM 31.4361 -90.9525 265° West 142 163 8,100  Level Houston Center
Thu 03:45:18 PM 31.4336 -90.9994 266° West 144 166 8,100  Level Houston Center
Thu 03:46:20 PM 31.4294 -91.0489 264° West 144 166 8,100  Level Houston Center
Thu 03:47:22 PM 31.4267 -91.1011 266° West 143 165 8,100  Level Houston Center
Thu 03:48:24 PM 31.4242 -91.1467 266° West 141 162 8,100  Level Houston Center
Thu 03:49:26 PM 31.4211 -91.1925 266° West 141 162 8,100  Level Houston Center
Thu 03:50:28 PM 31.4181 -91.2383 266° West 141 162 8,100 -61 Level Houston Center
Thu 03:51:04 PM 31.4153 -91.2658 263° West 140 161 8,000  Descending Houston Center
Thu 03:51:31 PM 31.4150 -91.2822 269° West 138 159 8,100 67 Climbing Houston Center
Thu 03:52:33 PM 31.4114 -91.3378 266° West 140 161 8,100  Level Houston Center
Thu 03:53:35 PM 31.4083 -91.3828 265° West 140 161 8,100 -51 Level Houston Center
Thu 03:54:30 PM 31.4067 -91.4256 267° West 139 160 8,000  Descending Houston Center
Thu 03:54:37 PM 31.4050 -91.4275 225° Southwest 139 160 8,100  Climbing Houston Center
Thu 03:55:31 PM 31.4039 -91.4722 268° West 138 159 8,000  Descending Houston Center
Thu 03:55:39 PM 31.4017 -91.4725 186° South 139 160 8,100  Climbing Houston Center
Thu 03:56:37 PM 31.4011 -91.5214 269° West 141 162 8,000  Descending Houston Center
Thu 03:56:41 PM 31.3994 -91.5178 118° Southeast 139 160 8,100  Climbing Houston Center
Thu 03:57:38 PM 31.3981 -91.5656 268° West 141 162 8,000  Descending Houston Center
Thu 03:57:44 PM 31.3967 -91.5731 258° West 141 162 8,100  Climbing Houston Center
Thu 03:58:39 PM 31.3933 -91.6150 265° West 140 161 8,000  Descending Houston Center
Thu 03:58:46 PM 31.3931 -91.6175 263° West 139 160 8,100  Climbing Houston Center
Thu 03:59:39 PM 31.3903 -91.6592 266° West 139 160 8,000  Descending Houston Center
Thu 03:59:48 PM 31.3903 -91.6631 270° West 140 161 8,100  Climbing Houston Center
Thu 04:00:34 PM 31.3869 -91.6986 264° West 141 162 8,000  Descending Houston Center
Thu 04:00:50 PM 31.3875 -91.7092 274° West 141 162 8,100  Climbing Houston Center
Thu 04:01:34 PM 31.3842 -91.7453 264° West 139 160 8,000  Descending Houston Center
Thu 04:01:52 PM 31.3844 -91.7533 272° West 139 160 8,100 -98 Climbing Houston Center
Thu 04:02:35 PM 31.3811 -91.7919 264° West 142 163 7,900 -194 Descending Houston Center
Thu 04:02:54 PM 31.3808 -91.8006 268° West 141 162 7,900 -448 Level Houston Center
Thu 04:03:42 PM 31.3769 -91.8486 265° West 156 180 7,400 -571 Descending Houston Center
Thu 04:03:57 PM 31.3761 -91.8611 266° West 149 171 7,300 -500 Descending Houston Center
Thu 04:04:42 PM 31.3722 -91.9003 263° West 157 181 6,900 -387 Descending Houston Center
Thu 04:04:59 PM 31.3728 -91.9114 273° West 154 177 6,900 -304 Level Houston Center
Thu 04:06:01 PM 31.3697 -91.9625 266° West 156 180 6,500 -635 Descending Houston Center
Thu 04:06:43 PM 31.3669 -92.0033 265° West 153 176 5,800 -677 Descending Houston Center
Thu 04:07:03 PM 31.3661 -92.0131 264° West 156 180 5,800 -590 Level Houston Center
Thu 04:07:44 PM 31.3622 -92.0525 263° West 153 176 5,200 -581 Descending Houston Center
Thu 04:08:05 PM 31.3628 -92.0614 274° West 154 177 5,200 -627 Level Houston Center
Thu 04:08:51 PM 31.3597 -92.1067 265° West 154 177 4,500 -774 Descending Houston Center
Thu 04:09:07 PM 31.3583 -92.1219 264° West 154 177 4,400 -667 Descending Houston Center
Thu 04:09:45 PM 31.3547 -92.1558 263° West 157 181 3,900 -387 Descending Houston Center
Thu 04:10:09 PM 31.3547 -92.1669 270° West 155 178 4,000 -590 Climbing Houston Center
Thu 04:10:46 PM 31.3519 -92.2072 265° West 169 194 3,300 -762 Descending Houston Center
Thu 04:11:12 PM 31.3506 -92.2278 265° West 162 186 3,200 -600 Descending Houston Center
Thu 04:11:46 PM 31.3475 -92.2639 264° West 167 192 2,700 -581 Descending Houston Center
Thu 04:12:14 PM 31.3469 -92.2817 268° West 165 190 2,600 -590 Descending Houston Center
Thu 04:12:47 PM 31.3444 -92.3131 265° West 161 185 2,100 -484 Descending Houston Center
Thu 04:13:16 PM 31.3425 -92.3336 264° West 164 189 2,100 -98 Level Houston Center
Thu 04:13:48 PM 31.3397 -92.3672 264° West 153 176 2,000  Descending Houston Center
Thu 04:14:18 PM 31.3397 -92.3822 270° West 158 182 2,100 -200 Climbing Houston Center
Thu 04:14:48 PM 31.3450 -92.4106 282° West 145 167 1,800 -290 Descending Houston Center
Thu 04:15:20 PM 31.3469 -92.4367 275° West 148 170 1,800 -109 Level Houston Center
Thu 04:15:43 PM 31.3500 -92.4539 282° West 141 162 1,700  Descending Houston Center
Thu 04:16:22 PM 31.3556 -92.4803 284° West 144 166 1,800 -200 Climbing Houston Center
Thu 04:16:43 PM 31.3611 -92.4969 291° West 138 159 1,500 -286 Descending Houston Center
Thu 04:17:25 PM 31.3719 -92.5200 299° West 141 162 1,500 -197 Level Houston Center
Thu 04:17:44 PM 31.3786 -92.5369 295° West 139 160 1,300 -290 Descending Houston Center
Thu 04:18:27 PM 31.3689 -92.5592 243° Southwest 137 158 1,200 -393 Descending Houston Center
Thu 04:18:45 PM 31.3619 -92.5725 239° Southwest 114 131 900 -677 Descending Houston Center
Thu 04:19:29 PM 31.3436 -92.5636 158° South 114 131 500 -600 Descending Houston Center
Thu 04:19:45 PM 31.3403 -92.5622 160° South 75 86 300 -290 Descending Houston Center
Thu 04:20:31 PM 31.3286 -92.5511 141° Southeast 90 104 200 -130 Descending Houston Center

Login

Don't have an account? Register now (free) for customized features, flight alerts, and more!